Terminal Aerodrome Forecast
Issued by NWS Wilmington, OH

Current Version | Previous Version | Graphics & Text | Print | Product List | Glossary On
Versions: 1 2 3 4 5 6 7 8 9 10 11 12 13 14 15 16 17 18 19 20 21 22 23 24 25
000
FTUS41 KILN 090544
TAFCVG
TAF
KCVG 090544Z 0906/1012 21006KT P6SM FEW250
     FM091500 21010KT P6SM VCSH OVC080
     FM091700 24010G18KT 3SM -SN OVC025
     FM091900 25012G20KT P6SM -SHSN OVC018
      TEMPO 0921/1001 2SM -SHSN
     FM100100 29013G21KT P6SM BKN025
     FM100600 27009KT P6SM BKN035
     FM101100 25007KT P6SM SCT150=

USA.gov is the U.S. government's official web portal to all federal, state and local government web resources and services.